Time;durP1;ratioP1;P1;durP2;ratioP2;P2;SDS_P1;SDS_P2;PMS_P1;PMS_P2;Temp;Humidity;BMP_temperature;BMP_pressure;BME280_temperature;BME280_humidity;BME280_pressure;Samples;Min_cycle;Max_cycle;Signal;HPM_P1;HPM_P2
2022/04/11 00:07:55;;;;;;;0.80;0.80;;;;;;;;;;20794803;28;20231;-81
2022/04/11 00:17:57;;;;;;;0.50;0.30;;;;;;;;;;20809984;28;20767;-81
2022/04/11 00:27:59;;;;;;;0.90;0.50;;;;;;;;;;20826193;28;20226;-82
2022/04/11 00:38:02;;;;;;;0.70;0.60;;;;;;;;;;20793720;28;20218;-82
2022/04/11 00:48:04;;;;;;;1.40;0.90;;;;;;;;;;20808424;28;20243;-82
2022/04/11 00:58:06;;;;;;;1.00;0.60;;;;;;;;;;20808748;28;20285;-82
2022/04/11 01:08:10;;;;;;;1.70;1.00;;;5.60;99.90;;;;;;20792363;28;20708;-81
2022/04/11 01:18:12;;;;;;;0.90;0.60;;;;;;;;;;20824088;28;20222;-82
2022/04/11 01:28:14;;;;;;;0.40;0.40;;;;;;;;;;20807218;28;20235;-81
2022/04/11 01:38:17;;;;;;;1.40;0.70;;;;;;;;;;20790562;28;20730;-82
2022/04/11 01:48:18;;;;;;;0.60;0.47;;;;;;;;;;20741094;28;20299;-81
2022/04/11 01:58:20;;;;;;;2.00;1.10;;;;;;;;;;20724681;28;20258;-81
2022/04/11 02:08:22;;;;;;;6.97;1.60;;;;;;;;;;20739048;28;20235;-81
2022/04/11 02:18:28;;;;;;;1.10;0.70;;;;;;;;;;20772592;28;20569;-81
2022/04/11 02:28:30;;;;;;;1.00;0.60;;;;;;;;;;20737415;28;20258;-81
2022/04/11 02:38:33;;;;;;;1.03;0.80;;;;;;;;;;20753703;28;20203;-81
2022/04/11 02:48:36;;;;;;;1.97;1.23;;;;;;;;;;20759244;28;20222;-81
2022/04/11 02:58:59;;;;;;;1.40;1.00;;;;;;;;;;20738720;28;20243;-81
2022/04/11 03:09:03;;;;;;;1.40;0.80;;;;;;;;;;20734386;28;20223;-80
2022/04/11 03:19:10;;;;;;;2.67;0.90;;;;;;;;;;20734908;28;20246;-80
2022/04/11 03:29:13;;;;;;;1.80;1.07;;;;;;;;;;20749360;28;20239;-81
2022/04/11 03:39:15;;;;;;;1.77;1.13;;;;;;;;;;20742223;28;20214;-81
2022/04/11 03:49:20;;;;;;;1.27;0.90;;;;;;;;;;20812846;28;20222;-80
2022/04/11 03:59:24;;;;;;;1.07;0.93;;;;;;;;;;20814771;28;20234;-81
2022/04/11 04:09:26;;;;;;;1.43;0.80;;;;;;;;;;20810854;28;20288;-80
2022/04/11 04:19:28;;;;;;;1.27;1.10;;;;;;;;;;20810429;28;20203;-80
2022/04/11 04:29:33;;;;;;;1.60;1.10;;;4.80;99.90;;;;;;20809534;28;20235;-81
2022/04/11 04:39:36;;;;;;;1.10;0.67;;;;;;;;;;20809480;28;20272;-80
2022/04/11 04:49:39;;;;;;;2.17;1.13;;;;;;;;;;20808237;28;20292;-80
2022/04/11 04:59:44;;;;;;;1.27;0.90;;;;;;;;;;20785995;28;20230;-81
2022/04/11 05:09:52;;;;;;;1.00;0.80;;;;;;;;;;20815275;28;20227;-81
2022/04/11 05:19:54;;;;;;;1.50;0.83;;;;;;;;;;20806423;28;20296;-80
2022/04/11 05:29:56;;;;;;;1.30;1.07;;;;;;;;;;20811174;28;20238;-80
2022/04/11 05:39:58;;;;;;;1.20;1.00;;;;;;;;;;20821745;28;20275;-80
2022/04/11 06:00:15;;;;;;;2.13;1.43;;;5.00;99.90;;;;;;21280490;27;1342582;-67
2022/04/11 06:10:19;;;;;;;1.67;1.40;;;;;;;;;;21174420;28;20215;-67
2022/04/11 06:20:22;;;;;;;3.50;1.67;;;;;;;;;;21124902;28;20212;-67
2022/04/11 06:30:24;;;;;;;4.30;1.40;;;;;;;;;;21098532;28;20204;-67
2022/04/11 06:40:26;;;;;;;1.77;1.00;;;6.40;99.90;;;;;;21091670;28;20204;-67
2022/04/11 06:50:28;;;;;;;2.67;1.57;;;;;;;;;;21074981;28;20675;-67
2022/04/11 07:00:30;;;;;;;1.93;1.20;;;;;;;;;;21107412;28;20686;-67
2022/04/11 07:10:32;;;;;;;3.13;1.20;;;7.20;99.90;;;;;;21057405;28;20205;-68
2022/04/11 07:20:34;;;;;;;1.53;1.00;;;;;;;;;;21033021;28;20540;-69
2022/04/11 07:30:37;;;;;;;2.13;1.67;;;;;;;;;;21064936;28;20216;-69
2022/04/11 07:40:39;;;;;;;1.47;1.07;;;;;;;;;;21030819;28;20201;-69
2022/04/11 07:50:40;;;;;;;1.00;0.80;;;;;;;;;;21030737;28;20261;-69
2022/04/11 08:00:44;;;;;;;1.20;0.90;;;;;;;;;;21062461;28;20229;-69
2022/04/11 08:10:47;;;;;;;2.30;1.20;;;;;;;;;;21046433;28;20589;-69
2022/04/11 08:20:49;;;;;;;1.10;0.80;;;;;;;;;;21043594;28;20521;-69
2022/04/11 08:30:51;;;;;;;0.73;0.63;;;;;;;;;;21044228;28;20248;-68
2022/04/11 08:40:54;;;;;;;0.80;0.43;;;8.90;99.90;;;;;;21060085;28;20749;-68
2022/04/11 08:50:56;;;;;;;1.13;0.67;;;;;;;;;;21026406;28;20253;-69
2022/04/11 09:00:58;;;;;;;0.87;0.60;;;;;;;;;;21025776;28;20285;-68
2022/04/11 09:11:00;;;;;;;3.33;0.87;;;;;;;;;;21040928;28;20241;-68
2022/04/11 09:21:02;;;;;;;0.67;0.40;;;;;;;;;;21040021;28;20577;-68
2022/04/11 09:31:06;;;;;;;1.90;0.90;;;10.80;99.90;;;;;;21039867;28;20226;-69
2022/04/11 09:41:08;;;;;;;0.93;0.63;;;;;;;;;;21022171;28;20265;-69
2022/04/11 09:51:10;;;;;;;1.13;0.50;;;;;;;;;;21038347;28;20246;-68
2022/04/11 10:01:13;;;;;;;1.00;0.63;;;11.60;99.90;;;;;;21021580;28;20293;-68
2022/04/11 10:11:18;;;;;;;1.40;0.60;;;11.80;99.90;;;;;;21021251;28;20258;-68
2022/04/11 10:21:21;;;;;;;1.20;0.70;;;;;;;;;;21004770;28;20297;-68
2022/04/11 10:31:35;;;;;;;0.40;0.40;;;;;;;;;;21037240;28;20627;-68
2022/04/11 10:41:56;;;;;;;0.23;0.20;;;;;;;;;;21060132;28;20238;-68
2022/04/11 10:52:35;;;;;;;1.33;0.63;;;12.90;99.90;;;;;;21051636;28;20220;-68
2022/04/11 11:02:50;;;;;;;0.10;0.10;;;12.90;99.90;;;;;;21050398;28;20565;-68
2022/04/11 11:12:52;;;;;;;1.67;0.67;;;;;;;;;;21049501;28;20269;-68
2022/04/11 11:23:13;;;;;;;1.03;0.40;;;;;;;;;;21065044;28;20228;-68
2022/04/11 11:33:15;;;;;;;0.57;0.40;;;;;;;;;;20999323;22;20259;-65
2022/04/11 11:43:18;;;;;;;2.40;0.90;;;;;;;;;;20964304;28;20243;-65
2022/04/11 11:53:20;;;;;;;0.77;0.60;;;;;;;;;;20963184;28;20572;-65
2022/04/11 12:13:43;;;;;;;0.53;0.40;;;;;;;;;;20964210;28;20214;-65
2022/04/11 12:23:47;;;;;;;1.60;0.70;;;14.80;99.90;;;;;;20944185;28;20286;-65
2022/04/11 12:33:50;;;;;;;2.87;1.40;;;15.00;99.90;;;;;;20943366;28;20259;-65
2022/04/11 12:44:18;;;;;;;0.70;0.63;;;15.00;99.90;;;;;;20926429;28;20217;-65
2022/04/11 12:54:21;;;;;;;0.50;0.47;;;;;;;;;;20972014;28;20201;-66
2022/04/11 13:04:23;;;;;;;0.77;0.60;;;15.20;99.90;;;;;;20941210;28;20270;-65
2022/04/11 13:14:25;;;;;;;0.87;0.50;;;;;;;;;;20940573;28;20640;-66
2022/04/11 13:24:26;;;;;;;0.70;0.50;;;;;;;;;;20939967;28;20221;-66
2022/04/11 13:34:28;;;;;;;0.43;0.43;;;;;;;;;;20939427;28;20221;-66
2022/04/11 13:44:30;;;;;;;2.50;0.60;;;;;;;;;;20930499;28;20216;-66
2022/04/11 13:54:32;;;;;;;1.33;0.73;;;;;;;;;;20949847;28;20741;-65
2022/04/11 14:04:34;;;;;;;0.90;0.70;;;;;;;;;;20938007;28;20225;-65
2022/04/11 14:14:36;;;;;;;2.00;1.00;;;;;;;;;;20956928;28;20274;-65
2022/04/11 14:24:39;;;;;;;0.90;0.70;;;;;;;;;;20965405;28;20232;-65
2022/04/11 14:34:40;;;;;;;0.87;0.53;;;;;;;;;;20948410;28;20259;-65
2022/04/11 14:44:44;;;;;;;0.53;0.50;;;;;;;;;;20953970;28;20290;-65
2022/04/11 14:54:46;;;;;;;0.57;0.50;;;;;;;;;;20963215;28;20683;-65
2022/04/11 15:04:47;;;;;;;0.60;0.50;;;16.60;99.90;;;;;;20971285;28;20243;-65
2022/04/11 15:14:50;;;;;;;0.50;0.50;;;;;;;;;;20943587;28;20258;-65
2022/04/11 15:24:51;;;;;;;1.70;0.60;;;;;;;;;;20939449;28;20323;-65
2022/04/11 15:34:53;;;;;;;1.03;0.70;;;;;;;;;;20926578;28;20707;-65
2022/04/11 15:44:55;;;;;;;1.43;0.70;;;;;;;;;;20899045;28;20225;-66
2022/04/11 15:54:58;;;;;;;0.77;0.53;;;;;;;;;;20905991;28;20221;-65
2022/04/11 16:05:00;;;;;;;2.17;0.60;;;;;;;;;;20912466;28;20258;-65
2022/04/11 16:15:03;;;;;;;1.00;0.60;;;;;;;;;;20909019;28;20242;-65
2022/04/11 16:25:05;;;;;;;0.90;0.50;;;;;;;;;;20892012;28;20639;-66
2022/04/11 16:35:07;;;;;;;0.53;0.50;;;;;;;;;;20888545;28;20226;-65
2022/04/11 16:45:09;;;;;;;0.77;0.40;;;;;;;;;;20912899;28;20213;-65
2022/04/11 16:55:11;;;;;;;0.37;0.37;;;;;;;;;;20926230;28;20208;-65
2022/04/11 17:05:13;;;;;;;0.70;0.40;;;;;;;;;;20900321;28;20274;-65
2022/04/11 17:25:35;;;;;;;0.83;0.40;;;;;;;;;;21000971;28;20278;-64
2022/04/11 17:35:37;;;;;;;2.07;0.60;;;16.00;99.90;;;;;;21023887;28;20220;-64
2022/04/11 17:45:39;;;;;;;1.40;0.40;;;;;;;;;;20804870;22;20301;-68
2022/04/11 17:55:41;;;;;;;1.10;0.50;;;;;;;;;;20756131;28;20218;-68
2022/04/11 18:05:45;;;;;;;3.53;0.90;;;;;;;;;;20749506;28;20594;-68
2022/04/11 18:15:47;;;;;;;0.50;0.50;;;;;;;;;;20755844;28;20249;-68
2022/04/11 18:25:53;;;;;;;0.97;0.50;;;;;;;;;;20759014;28;20223;-67
2022/04/11 18:35:56;;;;;;;2.03;0.70;;;;;;;;;;20773642;28;20215;-68
2022/04/11 18:45:59;;;;;;;4.03;1.10;;;;;;;;;;20763093;28;20586;-68
2022/04/11 18:56:02;;;;;;;1.30;0.90;;;14.40;99.90;;;;;;20766032;28;20211;-68
2022/04/11 19:06:04;;;;;;;1.60;1.10;;;14.10;99.90;;;;;;20749936;28;20226;-68
2022/04/11 19:16:06;;;;;;;1.63;1.13;;;11.70;99.90;;;;;;20773220;28;20214;-68
2022/04/11 19:26:10;;;;;;;1.60;0.87;;;;;;;;;;20787144;28;20272;-67
2022/04/11 19:36:14;;;;;;;1.60;1.07;;;;;;;;;;20761535;28;20226;-68
2022/04/11 19:46:17;;;;;;;2.20;1.20;;;;;;;;;;20787082;28;20605;-67
2022/04/11 19:56:19;;;;;;;1.97;1.20;;;;;;;;;;20766812;28;20215;-68
2022/04/11 20:06:20;;;;;;;1.73;1.10;;;13.50;99.90;;;;;;20783858;28;20218;-68
2022/04/11 20:16:23;;;;;;;2.60;0.90;;;;;;;;;;20776567;28;20206;-68
2022/04/11 20:26:25;;;;;;;1.80;1.13;;;;;;;;;;20773567;28;20284;-68
2022/04/11 20:36:26;;;;;;;1.70;1.10;;;;;;;;;;20821429;28;20206;-68
2022/04/11 20:46:28;;;;;;;2.30;0.90;;;;;;;;;;20771141;28;20283;-68
2022/04/11 20:56:31;;;;;;;0.93;0.70;;;;;;;;;;20802973;28;20223;-68
2022/04/11 21:06:33;;;;;;;1.70;0.67;;;;;;;;;;20770629;28;20257;-68
2022/04/11 21:16:35;;;;;;;1.67;0.93;;;;;;;;;;20800265;28;20705;-67
2022/04/11 21:26:37;;;;;;;1.27;0.80;;;;;;;;;;20785659;28;20222;-67
2022/04/11 21:36:39;;;;;;;2.33;0.80;;;;;;;;;;20784654;28;20219;-67
2022/04/11 21:46:41;;;;;;;1.43;0.80;;;;;;;;;;20784502;28;20578;-67
2022/04/11 21:56:46;;;;;;;2.10;1.00;;;12.50;99.90;;;;;;20772563;28;20202;-67
2022/04/11 22:06:48;;;;;;;1.83;1.20;;;;;;;;;;20790103;28;20219;-68
2022/04/11 22:16:50;;;;;;;1.43;0.90;;;;;;;;;;20756996;28;20219;-67
2022/04/11 22:26:52;;;;;;;2.93;1.30;;;;;;;;;;20804518;28;20226;-67
2022/04/11 22:36:54;;;;;;;3.60;2.10;;;;;;;;;;20827086;28;20264;-67
2022/04/11 22:46:56;;;;;;;2.77;1.40;;;;;;;;;;20819418;28;20611;-67
2022/04/11 22:56:57;;;;;;;1.77;1.07;;;11.80;99.90;;;;;;20787510;28;20264;-67
2022/04/11 23:07:00;;;;;;;1.93;1.10;;;;;;;;;;20802317;28;20304;-67
2022/04/11 23:17:02;;;;;;;1.73;0.93;;;;;;;;;;20834924;28;20206;-67
2022/04/11 23:27:04;;;;;;;2.03;1.13;;;11.80;99.90;;;;;;20784694;28;20226;-67
2022/04/11 23:37:05;;;;;;;1.20;0.80;;;;;;;;;;20784129;28;20215;-67
2022/04/11 23:47:07;;;;;;;1.63;1.07;;;;;;;;;;20786628;28;20234;-67
2022/04/11 23:57:09;;;;;;;1.80;1.10;;;;;;;;;;20774384;28;20681;-67
